createdAt,value
2022-10-18T00:00:24.765Z,81.50
2022-10-18T00:05:48.795Z,81.35
2022-10-18T00:10:51.445Z,81.31
2022-10-18T00:16:00.219Z,81.55
2022-10-18T00:21:08.674Z,81.68
2022-10-18T00:26:32.558Z,81.67
2022-10-18T00:31:37.587Z,82.02
2022-10-18T00:36:41.030Z,81.99
2022-10-18T00:41:44.718Z,82.27
2022-10-18T00:46:49.074Z,82.26
2022-10-18T00:52:32.469Z,82.22
2022-10-18T00:57:36.758Z,82.43
2022-10-18T01:02:42.542Z,82.39
2022-10-18T01:08:13.251Z,82.21
2022-10-18T01:13:44.262Z,82.36
2022-10-18T01:19:11.850Z,82.43
2022-10-18T01:24:32.771Z,83.07
2022-10-18T01:29:57.592Z,83.23
2022-10-18T01:35:05.082Z,83.38
2022-10-18T01:40:10.020Z,83.39
2022-10-18T01:45:14.979Z,83.41
2022-10-18T01:50:30.098Z,83.92
2022-10-18T01:55:48.648Z,84.25
2022-10-18T02:01:16.928Z,83.93
2022-10-18T02:06:39.305Z,84.12
2022-10-18T02:11:45.172Z,84.05
2022-10-18T02:16:54.626Z,84.20
2022-10-18T02:21:58.962Z,84.46
2022-10-18T02:27:02.585Z,84.58
2022-10-18T02:32:05.234Z,84.59
2022-10-18T02:37:10.826Z,84.74
2022-10-18T02:42:15.314Z,84.89
2022-10-18T02:47:18.318Z,85.20
2022-10-18T02:52:21.118Z,85.52
2022-10-18T02:57:23.778Z,85.97
2022-10-18T03:02:27.095Z,86.03
2022-10-18T03:07:30.079Z,85.80
2022-10-18T03:12:33.281Z,85.47
2022-10-18T03:17:36.009Z,85.67
2022-10-18T03:22:38.640Z,85.97
2022-10-18T03:27:41.331Z,86.47
2022-10-18T03:32:43.944Z,86.49
2022-10-18T03:37:46.626Z,86.54
2022-10-18T03:42:49.537Z,86.66
2022-10-18T03:47:52.241Z,86.37
2022-10-18T03:52:55.654Z,86.64
2022-10-18T03:57:58.272Z,86.81
2022-10-18T04:03:00.949Z,87.19
2022-10-18T04:08:04.711Z,87.55
2022-10-18T04:13:07.978Z,87.67
2022-10-18T04:18:10.595Z,87.99
2022-10-18T04:23:13.201Z,87.72
2022-10-18T04:28:15.976Z,88.24
2022-10-18T04:33:19.686Z,88.70
2022-10-18T04:38:22.522Z,88.76
2022-10-18T04:43:25.112Z,89.04
2022-10-18T04:48:28.346Z,88.94
2022-10-18T04:53:31.066Z,89.36
2022-10-18T04:58:33.804Z,89.54
2022-10-18T05:03:36.405Z,89.92
2022-10-18T05:08:39.061Z,89.83
2022-10-18T05:13:41.695Z,90.04
2022-10-18T05:18:44.394Z,89.90
2022-10-18T05:23:47.014Z,90.13
2022-10-18T05:28:50.778Z,90.30
2022-10-18T05:33:53.512Z,90.62
2022-10-18T05:38:58.635Z,90.32
2022-10-18T05:44:07.206Z,90.61
2022-10-18T05:49:13.614Z,90.91
2022-10-18T05:54:16.881Z,90.75
2022-10-18T05:59:20.222Z,91.12
2022-10-18T06:04:23.413Z,91.14
2022-10-18T06:09:27.386Z,91.13
2022-10-18T06:14:35.887Z,90.99
2022-10-18T06:19:55.182Z,91.22
2022-10-18T06:24:57.805Z,91.74
2022-10-18T06:30:00.537Z,91.19
2022-10-18T06:35:03.269Z,91.39
2022-10-18T06:40:07.135Z,91.15
2022-10-18T06:45:10.064Z,91.37
2022-10-18T06:50:15.435Z,91.16
2022-10-18T06:55:18.313Z,90.66
2022-10-18T07:00:20.959Z,90.45
2022-10-18T07:05:23.855Z,90.29
2022-10-18T07:10:26.554Z,90.23
2022-10-18T07:15:29.570Z,90.76
2022-10-18T07:20:32.394Z,90.61
2022-10-18T07:25:35.688Z,90.69
2022-10-18T07:30:38.390Z,90.46
2022-10-18T07:35:41.375Z,90.70
2022-10-18T07:40:44.093Z,90.36
2022-10-18T07:45:53.364Z,90.36
2022-10-18T07:51:00.090Z,90.28
2022-10-18T07:56:08.743Z,90.41
2022-10-18T08:01:16.293Z,90.22
2022-10-18T08:06:20.520Z,90.50
2022-10-18T08:11:25.471Z,90.17
2022-10-18T08:16:29.135Z,90.04
2022-10-18T08:21:31.872Z,90.24
2022-10-18T08:26:34.543Z,90.83
2022-10-18T08:31:37.386Z,91.29
2022-10-18T08:36:40.137Z,91.22
2022-10-18T08:42:07.508Z,91.48
2022-10-18T08:47:28.877Z,91.56
2022-10-18T08:52:45.891Z,91.49
2022-10-18T08:57:49.199Z,91.20
2022-10-18T09:03:13.360Z,91.24
2022-10-18T09:08:30.957Z,91.76
2022-10-18T09:13:37.635Z,91.77
2022-10-18T09:18:57.471Z,91.76
2022-10-18T09:24:14.051Z,92.33
2022-10-18T09:29:40.064Z,92.35
2022-10-18T09:34:46.754Z,92.22
2022-10-18T09:39:53.697Z,92.43
2022-10-18T09:45:03.943Z,92.26
2022-10-18T09:50:30.696Z,92.37
2022-10-18T09:55:39.850Z,92.74
2022-10-18T10:00:48.572Z,93.22
2022-10-18T10:06:17.020Z,93.15
2022-10-18T10:11:36.456Z,92.41
2022-10-18T10:16:52.328Z,92.73
2022-10-18T10:21:59.067Z,92.02
2022-10-18T10:27:05.844Z,91.83
2022-10-18T10:32:13.594Z,92.26
2022-10-18T10:37:34.999Z,91.99
2022-10-18T10:42:48.912Z,92.11
2022-10-18T10:47:53.765Z,91.98
2022-10-18T10:52:56.698Z,92.36
2022-10-18T10:58:00.477Z,92.86
2022-10-18T11:03:28.427Z,93.12
2022-10-18T11:08:38.252Z,92.84
2022-10-18T11:14:13.236Z,92.83
2022-10-18T11:19:40.729Z,92.58
2022-10-18T11:24:43.817Z,92.64
2022-10-18T11:29:51.360Z,92.95
2022-10-18T11:35:25.725Z,92.85
2022-10-18T11:41:24.979Z,92.63
2022-10-18T11:47:09.367Z,92.84
2022-10-18T11:52:41.812Z,92.83
2022-10-18T11:58:18.847Z,93.00
2022-10-18T12:03:29.185Z,93.27
2022-10-18T12:08:40.166Z,93.39
2022-10-18T12:13:51.498Z,93.25
2022-10-18T12:18:58.416Z,93.24
2022-10-18T12:24:22.188Z,93.54
2022-10-18T12:29:32.981Z,93.26
2022-10-18T12:34:43.749Z,93.29
2022-10-18T12:45:33.244Z,93.24
2022-10-18T12:50:39.707Z,93.74
2022-10-18T12:55:45.476Z,93.71
2022-10-18T13:00:49.077Z,93.56
2022-10-18T13:06:01.601Z,94.04
2022-10-18T13:11:08.486Z,94.19
2022-10-18T13:16:20.406Z,94.00
2022-10-18T13:21:25.643Z,94.40
2022-10-18T13:27:34.960Z,94.68
2022-10-18T13:32:44.573Z,94.95
2022-10-18T13:37:59.668Z,94.86
2022-10-18T13:43:39.819Z,95.05
2022-10-18T13:49:05.685Z,94.62
2022-10-18T13:54:14.480Z,94.80
2022-10-18T13:59:30.244Z,94.80
2022-10-18T14:04:45.671Z,94.49
2022-10-18T14:09:56.078Z,94.29
2022-10-18T14:15:18.117Z,94.08
2022-10-18T14:20:28.557Z,94.12
2022-10-18T14:25:37.865Z,94.39
2022-10-18T14:30:55.720Z,94.29
2022-10-18T14:36:03.752Z,93.82
2022-10-18T14:41:15.089Z,94.52
2022-10-18T14:46:27.336Z,94.36
2022-10-18T14:51:36.488Z,94.50
2022-10-18T14:56:41.515Z,94.82
2022-10-18T15:01:53.957Z,94.50
2022-10-18T15:06:57.664Z,95.12
2022-10-18T15:12:03.162Z,94.88
2022-10-18T15:17:20.423Z,95.37
2022-10-18T15:22:32.910Z,95.55
2022-10-18T15:27:38.387Z,95.86
2022-10-18T15:32:51.853Z,95.50
2022-10-18T15:37:57.350Z,95.12
2022-10-18T15:43:03.702Z,95.68
2022-10-18T15:48:06.358Z,95.50
2022-10-18T15:53:21.330Z,96.00
2022-10-18T15:58:24.051Z,96.55
2022-10-18T16:03:27.480Z,95.94
2022-10-18T16:08:30.796Z,95.94
2022-10-18T16:13:33.673Z,96.35
2022-10-18T16:18:36.373Z,96.82
2022-10-18T16:23:38.983Z,95.88
2022-10-18T16:28:42.113Z,95.83
2022-10-18T16:33:45.992Z,96.32
2022-10-18T16:38:49.363Z,95.86
2022-10-18T16:43:52.083Z,96.40
2022-10-18T16:48:55.410Z,96.60
2022-10-18T16:53:58.418Z,96.63
2022-10-18T16:59:01.372Z,96.64
2022-10-18T17:04:04.152Z,96.52
2022-10-18T17:09:06.841Z,96.11
2022-10-18T17:14:09.539Z,95.80
2022-10-18T17:19:12.236Z,96.02
2022-10-18T17:24:14.935Z,96.14
2022-10-18T17:29:17.736Z,95.77
2022-10-18T17:34:21.532Z,95.52
2022-10-18T17:39:24.965Z,95.65
2022-10-18T17:44:27.559Z,95.50
2022-10-18T17:49:30.251Z,95.24
2022-10-18T17:54:32.897Z,95.72
2022-10-18T17:59:35.669Z,95.94
2022-10-18T18:04:38.444Z,95.81
2022-10-18T18:09:41.095Z,95.91
2022-10-18T18:14:43.866Z,95.87
2022-10-18T18:24:54.104Z,96.25
2022-10-18T18:29:56.888Z,96.27
2022-10-18T18:34:59.577Z,96.56
2022-10-18T18:40:02.180Z,96.46
2022-10-18T18:45:05.760Z,96.45
2022-10-18T18:50:08.799Z,96.38
2022-10-18T18:55:11.495Z,96.17
2022-10-18T19:00:15.116Z,96.22
2022-10-18T19:05:17.883Z,96.37
2022-10-18T19:10:20.595Z,96.20
2022-10-18T19:15:23.621Z,95.95
2022-10-18T19:20:26.321Z,95.96
2022-10-18T19:25:29.126Z,95.67
2022-10-18T19:30:31.720Z,94.91
2022-10-18T19:35:34.335Z,94.09
2022-10-18T19:40:37.015Z,94.12
2022-10-18T19:45:39.715Z,94.18
2022-10-18T19:50:42.413Z,92.98
2022-10-18T19:55:45.108Z,92.41
2022-10-18T20:00:52.731Z,92.73
2022-10-18T20:05:56.895Z,93.01
2022-10-18T20:11:04.787Z,92.76
2022-10-18T20:16:09.268Z,92.83
2022-10-18T20:21:14.359Z,92.38
2022-10-18T20:26:20.804Z,92.15
2022-10-18T20:31:27.858Z,92.08
2022-10-18T20:36:31.740Z,91.85
2022-10-18T20:41:38.117Z,92.01
2022-10-18T20:46:41.371Z,92.00
2022-10-18T20:51:44.788Z,92.32
2022-10-18T20:56:47.415Z,92.46
2022-10-18T21:01:50.159Z,92.58
2022-10-18T21:06:53.070Z,92.32
2022-10-18T21:11:56.308Z,92.77
2022-10-18T21:16:59.313Z,93.03
2022-10-18T21:22:02.007Z,93.53
2022-10-18T21:27:04.709Z,93.85
2022-10-18T21:32:07.406Z,93.92
2022-10-18T21:37:10.101Z,93.41
2022-10-18T21:42:13.835Z,93.63
2022-10-18T21:47:16.499Z,93.97
2022-10-18T21:52:19.122Z,94.24
2022-10-18T21:57:21.823Z,94.07
2022-10-18T22:02:24.519Z,94.20
2022-10-18T22:07:27.218Z,94.02
2022-10-18T22:12:30.041Z,94.14
2022-10-18T22:17:32.960Z,94.29
2022-10-18T22:22:35.929Z,94.54
2022-10-18T22:27:38.630Z,94.69
2022-10-18T22:32:41.308Z,94.15
2022-10-18T22:37:44.024Z,94.01
2022-10-18T22:42:46.727Z,94.34
2022-10-18T22:47:49.338Z,94.35
2022-10-18T22:52:54.018Z,94.02
2022-10-18T22:57:57.362Z,94.24
2022-10-18T23:02:59.950Z,94.77
2022-10-18T23:08:02.543Z,94.98
2022-10-18T23:13:06.311Z,95.64
2022-10-18T23:18:08.924Z,95.30
2022-10-18T23:23:12.785Z,95.36
2022-10-18T23:28:15.379Z,95.46
2022-10-18T23:33:17.992Z,95.50
2022-10-18T23:38:20.611Z,95.78
2022-10-18T23:43:23.513Z,95.93
2022-10-18T23:48:27.263Z,95.83
2022-10-18T23:53:30.264Z,95.62
2022-10-18T23:58:34.649Z,95.88
